sensor_id;sensor_type;location;lat;lon;timestamp;pressure;altitude;pressure_sealevel;temperature;humidity
48527;BME280;34317;51.660;5.824;2023-02-28T00:01:25;103043.66;;;3.91;47.19
48527;BME280;34317;51.660;5.824;2023-02-28T00:03:53;103057.63;;;3.90;47.00
48527;BME280;34317;51.660;5.824;2023-02-28T00:06:20;103052.41;;;3.90;47.15
48527;BME280;34317;51.660;5.824;2023-02-28T00:08:48;103053.25;;;3.89;47.07
48527;BME280;34317;51.660;5.824;2023-02-28T00:11:16;103052.34;;;3.87;46.97
48527;BME280;34317;51.660;5.824;2023-02-28T00:13:45;103054.03;;;3.85;47.15
48527;BME280;34317;51.660;5.824;2023-02-28T00:16:21;103047.94;;;3.84;47.20
48527;BME280;34317;51.660;5.824;2023-02-28T00:18:49;103052.25;;;3.84;47.10
48527;BME280;34317;51.660;5.824;2023-02-28T00:21:18;103043.50;;;3.82;47.38
48527;BME280;34317;51.660;5.824;2023-02-28T00:23:46;103039.97;;;3.80;46.99
48527;BME280;34317;51.660;5.824;2023-02-28T00:26:13;103032.97;;;3.79;47.39
48527;BME280;34317;51.660;5.824;2023-02-28T00:28:44;103045.13;;;3.77;47.17
48527;BME280;34317;51.660;5.824;2023-02-28T00:31:12;103040.78;;;3.77;47.49
48527;BME280;34317;51.660;5.824;2023-02-28T00:33:40;103043.38;;;3.76;47.39
48527;BME280;34317;51.660;5.824;2023-02-28T00:36:09;103036.34;;;3.75;47.27
48527;BME280;34317;51.660;5.824;2023-02-28T00:38:39;103039.84;;;3.74;47.26
48527;BME280;34317;51.660;5.824;2023-02-28T00:41:07;103034.63;;;3.74;47.51
48527;BME280;34317;51.660;5.824;2023-02-28T00:43:36;103036.31;;;3.72;47.31
48527;BME280;34317;51.660;5.824;2023-02-28T00:46:05;103036.31;;;3.72;47.34
48527;BME280;34317;51.660;5.824;2023-02-28T00:48:33;103036.31;;;3.72;47.18
48527;BME280;34317;51.660;5.824;2023-02-28T00:51:00;103035.41;;;3.71;47.47
48527;BME280;34317;51.660;5.824;2023-02-28T00:53:28;103036.31;;;3.72;47.35
48527;BME280;34317;51.660;5.824;2023-02-28T00:55:57;103036.31;;;3.72;47.41
48527;BME280;34317;51.660;5.824;2023-02-28T00:58:26;103041.56;;;3.72;47.61
48527;BME280;34317;51.660;5.824;2023-02-28T01:00:53;103039.78;;;3.70;47.58
48527;BME280;34317;51.660;5.824;2023-02-28T01:03:21;103045.03;;;3.70;47.37
48527;BME280;34317;51.660;5.824;2023-02-28T01:05:49;103046.75;;;3.68;47.59
48527;BME280;34317;51.660;5.824;2023-02-28T01:08:17;103055.47;;;3.69;47.63
48527;BME280;34317;51.660;5.824;2023-02-28T01:10:44;103058.09;;;3.67;47.68
48527;BME280;34317;51.660;5.824;2023-02-28T01:13:13;103051.91;;;3.65;47.69
48527;BME280;34317;51.660;5.824;2023-02-28T01:15:45;103055.41;;;3.64;47.74
48527;BME280;34317;51.660;5.824;2023-02-28T01:18:13;103057.16;;;3.64;47.11
48527;BME280;34317;51.660;5.824;2023-02-28T01:20:40;103058.84;;;3.63;47.51
48527;BME280;34317;51.660;5.824;2023-02-28T01:23:09;103055.41;;;3.64;47.65
48527;BME280;34317;51.660;5.824;2023-02-28T01:25:36;103055.41;;;3.64;47.44
48527;BME280;34317;51.660;5.824;2023-02-28T01:28:04;103067.63;;;3.64;47.83
48527;BME280;34317;51.660;5.824;2023-02-28T01:30:33;103065.00;;;3.64;47.60
48527;BME280;34317;51.660;5.824;2023-02-28T01:33:01;103056.25;;;3.63;47.63
48527;BME280;34317;51.660;5.824;2023-02-28T01:35:32;103051.88;;;3.62;47.66
48527;BME280;34317;51.660;5.824;2023-02-28T01:38:00;103051.88;;;3.62;47.55
48527;BME280;34317;51.660;5.824;2023-02-28T01:40:47;103050.09;;;3.61;47.58
48527;BME280;34317;51.660;5.824;2023-02-28T01:46:12;103051.78;;;3.59;47.70
48527;BME280;34317;51.660;5.824;2023-02-28T01:48:53;103044.81;;;3.58;47.80
48527;BME280;34317;51.660;5.824;2023-02-28T01:51:26;103044.81;;;3.58;47.54
48527;BME280;34317;51.660;5.824;2023-02-28T01:54:01;103043.03;;;3.57;47.75
48527;BME280;34317;51.660;5.824;2023-02-28T01:56:33;103038.63;;;3.55;47.66
48527;BME280;34317;51.660;5.824;2023-02-28T01:59:04;103047.31;;;3.54;47.62
48527;BME280;34317;51.660;5.824;2023-02-28T02:01:32;103040.25;;;3.49;47.80
48527;BME280;34317;51.660;5.824;2023-02-28T02:04:02;103051.59;;;3.48;47.94
48527;BME280;34317;51.660;5.824;2023-02-28T02:06:51;103048.03;;;3.46;47.73
48527;BME280;34317;51.660;5.824;2023-02-28T02:09:18;103045.41;;;3.46;47.82
48527;BME280;34317;51.660;5.824;2023-02-28T02:11:46;103034.94;;;3.45;48.06
48527;BME280;34317;51.660;5.824;2023-02-28T02:14:36;103035.78;;;3.44;47.99
48527;BME280;34317;51.660;5.824;2023-02-28T02:17:51;103028.84;;;3.46;48.06
48527;BME280;34317;51.660;5.824;2023-02-28T02:36:13;103023.09;;;3.65;48.56
48527;BME280;34317;51.660;5.824;2023-02-28T02:38:58;103021.41;;;3.69;48.49
48527;BME280;34317;51.660;5.824;2023-02-28T02:41:36;103027.66;;;3.76;48.68
48527;BME280;34317;51.660;5.824;2023-02-28T02:44:12;103017.25;;;3.79;48.38
48527;BME280;34317;51.660;5.824;2023-02-28T02:46:48;103026.91;;;3.83;48.65
48527;BME280;34317;51.660;5.824;2023-02-28T02:49:37;103025.19;;;3.83;48.58
48527;BME280;34317;51.660;5.824;2023-02-28T02:52:07;103024.34;;;3.86;48.65
48527;BME280;34317;51.660;5.824;2023-02-28T02:54:39;103029.66;;;3.89;48.68
48527;BME280;34317;51.660;5.824;2023-02-28T02:57:13;103024.47;;;3.92;48.62
48527;BME280;34317;51.660;5.824;2023-02-28T02:59:44;103028.00;;;3.94;48.51
48527;BME280;34317;51.660;5.824;2023-02-28T03:02:14;103036.78;;;3.96;48.66
48527;BME280;34317;51.660;5.824;2023-02-28T03:04:50;103028.06;;;3.99;48.64
48527;BME280;34317;51.660;5.824;2023-02-28T03:07:21;103022.84;;;4.00;48.41
48527;BME280;34317;51.660;5.824;2023-02-28T03:09:52;103022.84;;;4.00;48.68
48527;BME280;34317;51.660;5.824;2023-02-28T03:12:23;103024.63;;;4.01;48.64
48527;BME280;34317;51.660;5.824;2023-02-28T03:15:11;103028.09;;;4.00;48.76
48527;BME280;34317;51.660;5.824;2023-02-28T03:17:56;103019.41;;;4.01;48.70
48527;BME280;34317;51.660;5.824;2023-02-28T03:24:18;103031.69;;;4.05;48.74
48527;BME280;34317;51.660;5.824;2023-02-28T03:26:51;103022.13;;;4.07;48.81
48527;BME280;34317;51.660;5.824;2023-02-28T03:29:39;103023.03;;;4.09;49.06
48527;BME280;34317;51.660;5.824;2023-02-28T03:32:24;103027.38;;;4.10;48.85
48527;BME280;34317;51.660;5.824;2023-02-28T03:34:58;103033.56;;;4.13;48.69
48527;BME280;34317;51.660;5.824;2023-02-28T03:37:28;103026.63;;;4.15;48.88
48527;BME280;34317;51.660;5.824;2023-02-28T03:39:59;103029.25;;;4.18;49.16
48527;BME280;34317;51.660;5.824;2023-02-28T03:42:29;103029.28;;;4.19;49.12
48527;BME280;34317;51.660;5.824;2023-02-28T03:45:08;103030.22;;;4.23;48.85
48527;BME280;34317;51.660;5.824;2023-02-28T03:47:41;103032.03;;;4.27;48.89
48527;BME280;34317;51.660;5.824;2023-02-28T03:52:53;103037.38;;;4.33;49.00
48527;BME280;34317;51.660;5.824;2023-02-28T03:55:22;103019.97;;;4.35;48.81
48527;BME280;34317;51.660;5.824;2023-02-28T03:57:57;103028.72;;;4.37;48.83
48527;BME280;34317;51.660;5.824;2023-02-28T04:00:31;103018.22;;;4.39;48.98
48527;BME280;34317;51.660;5.824;2023-02-28T04:03:01;103013.94;;;4.41;48.77
48527;BME280;34317;51.660;5.824;2023-02-28T04:05:29;103016.53;;;4.42;48.99
48527;BME280;34317;51.660;5.824;2023-02-28T04:08:07;103020.94;;;4.43;49.02
48527;BME280;34317;51.660;5.824;2023-02-28T04:10:35;103012.22;;;4.46;48.71
48527;BME280;34317;51.660;5.824;2023-02-28T04:13:02;103009.63;;;4.47;48.74
48527;BME280;34317;51.660;5.824;2023-02-28T04:15:29;103007.06;;;4.51;48.77
48527;BME280;34317;51.660;5.824;2023-02-28T04:17:57;103014.97;;;4.54;48.81
48527;BME280;34317;51.660;5.824;2023-02-28T04:20:24;103016.75;;;4.55;48.65
48527;BME280;34317;51.660;5.824;2023-02-28T04:22:51;103019.44;;;4.58;49.08
48527;BME280;34317;51.660;5.824;2023-02-28T04:25:19;103012.47;;;4.60;48.73
48527;BME280;34317;51.660;5.824;2023-02-28T04:27:48;103016.84;;;4.61;48.87
48527;BME280;34317;51.660;5.824;2023-02-28T04:30:16;103026.47;;;4.62;48.92
48527;BME280;34317;51.660;5.824;2023-02-28T04:32:43;103028.25;;;4.64;49.06
48527;BME280;34317;51.660;5.824;2023-02-28T04:35:10;103023.94;;;4.68;48.88
48527;BME280;34317;51.660;5.824;2023-02-28T04:37:38;103027.47;;;4.70;48.88
48527;BME280;34317;51.660;5.824;2023-02-28T04:40:06;103018.75;;;4.71;48.68
48527;BME280;34317;51.660;5.824;2023-02-28T04:42:34;103021.38;;;4.73;48.79
48527;BME280;34317;51.660;5.824;2023-02-28T04:45:03;103024.03;;;4.74;48.56
48527;BME280;34317;51.660;5.824;2023-02-28T04:47:30;103024.06;;;4.77;48.88
48527;BME280;34317;51.660;5.824;2023-02-28T04:49:58;103021.47;;;4.79;48.31
48527;BME280;34317;51.660;5.824;2023-02-28T04:52:27;103032.00;;;4.80;48.63
48527;BME280;34317;51.660;5.824;2023-02-28T04:54:54;103030.25;;;4.81;48.59
48527;BME280;34317;51.660;5.824;2023-02-28T04:57:22;103032.84;;;4.79;48.50
48527;BME280;34317;51.660;5.824;2023-02-28T04:59:49;103029.38;;;4.80;48.45
48527;BME280;34317;51.660;5.824;2023-02-28T05:02:16;103032.84;;;4.79;48.71
48527;BME280;34317;51.660;5.824;2023-02-28T05:04:44;103031.06;;;4.78;48.53
48527;BME280;34317;51.660;5.824;2023-02-28T05:07:11;103031.06;;;4.78;48.59
48527;BME280;34317;51.660;5.824;2023-02-28T05:09:38;103034.63;;;4.80;48.45
48527;BME280;34317;51.660;5.824;2023-02-28T05:12:05;103038.97;;;4.80;48.61
48527;BME280;34317;51.660;5.824;2023-02-28T05:14:33;103041.63;;;4.81;48.59
48527;BME280;34317;51.660;5.824;2023-02-28T05:17:00;103037.25;;;4.80;48.39
48527;BME280;34317;51.660;5.824;2023-02-28T05:19:27;103043.34;;;4.79;48.45
48527;BME280;34317;51.660;5.824;2023-02-28T05:21:55;103048.59;;;4.79;48.32
48527;BME280;34317;51.660;5.824;2023-02-28T05:24:22;103045.13;;;4.80;48.64
48527;BME280;34317;51.660;5.824;2023-02-28T05:26:52;103039.00;;;4.81;48.58
48527;BME280;34317;51.660;5.824;2023-02-28T05:29:20;103048.66;;;4.82;48.43
48527;BME280;34317;51.660;5.824;2023-02-28T05:31:47;103046.03;;;4.82;48.67
48527;BME280;34317;51.660;5.824;2023-02-28T05:34:15;103047.81;;;4.85;48.51
48527;BME280;34317;51.660;5.824;2023-02-28T05:36:43;103049.59;;;4.86;48.71
48527;BME280;34317;51.660;5.824;2023-02-28T05:39:10;103056.59;;;4.87;48.31
48527;BME280;34317;51.660;5.824;2023-02-28T05:41:43;103050.50;;;4.88;48.51
48527;BME280;34317;51.660;5.824;2023-02-28T05:44:10;103061.00;;;4.90;48.32
48527;BME280;34317;51.660;5.824;2023-02-28T05:46:38;103064.50;;;4.88;48.04
48527;BME280;34317;51.660;5.824;2023-02-28T05:49:05;103055.72;;;4.86;48.51
48527;BME280;34317;51.660;5.824;2023-02-28T05:51:33;103053.94;;;4.85;48.48
48527;BME280;34317;51.660;5.824;2023-02-28T05:54:03;103065.34;;;4.86;48.54
48527;BME280;34317;51.660;5.824;2023-02-28T05:56:31;103066.22;;;4.86;48.33
48527;BME280;34317;51.660;5.824;2023-02-28T05:58:58;103066.22;;;4.86;48.50
48527;BME280;34317;51.660;5.824;2023-02-28T06:01:35;103069.69;;;4.85;48.30
48527;BME280;34317;51.660;5.824;2023-02-28T06:04:05;103069.69;;;4.85;48.25
48527;BME280;34317;51.660;5.824;2023-02-28T06:06:33;103062.69;;;4.84;48.31
48527;BME280;34317;51.660;5.824;2023-02-28T06:09:04;103064.41;;;4.82;48.30
48527;BME280;34317;51.660;5.824;2023-02-28T06:11:32;103069.66;;;4.82;48.53
48527;BME280;34317;51.660;5.824;2023-02-28T06:14:00;103064.34;;;4.79;48.49
48527;BME280;34317;51.660;5.824;2023-02-28T06:16:29;103074.00;;;4.80;48.21
48527;BME280;34317;51.660;5.824;2023-02-28T06:18:58;103073.97;;;4.79;48.30
48527;BME280;34317;51.660;5.824;2023-02-28T06:21:26;103074.84;;;4.79;48.34
48527;BME280;34317;51.660;5.824;2023-02-28T06:23:56;103073.97;;;4.79;48.31
48527;BME280;34317;51.660;5.824;2023-02-28T06:26:24;103081.84;;;4.77;48.54
48527;BME280;34317;51.660;5.824;2023-02-28T06:28:51;103085.28;;;4.76;48.21
48527;BME280;34317;51.660;5.824;2023-02-28T06:31:19;103087.94;;;4.75;48.50
48527;BME280;34317;51.660;5.824;2023-02-28T06:33:47;103080.03;;;4.73;48.38
48527;BME280;34317;51.660;5.824;2023-02-28T06:36:15;103085.28;;;4.73;48.65
48527;BME280;34317;51.660;5.824;2023-02-28T06:38:43;103080.03;;;4.73;48.36
48527;BME280;34317;51.660;5.824;2023-02-28T06:41:11;103080.91;;;4.74;48.69
48527;BME280;34317;51.660;5.824;2023-02-28T06:43:41;103086.16;;;4.74;48.79
48527;BME280;34317;51.660;5.824;2023-02-28T06:46:11;103086.19;;;4.75;48.67
48527;BME280;34317;51.660;5.824;2023-02-28T06:48:43;103080.97;;;4.77;48.47
48527;BME280;34317;51.660;5.824;2023-02-28T06:51:12;103088.81;;;4.78;48.58
48527;BME280;34317;51.660;5.824;2023-02-28T06:53:41;103088.81;;;4.78;48.45
48527;BME280;34317;51.660;5.824;2023-02-28T06:56:13;103095.81;;;4.76;48.27
48527;BME280;34317;51.660;5.824;2023-02-28T06:58:41;103101.03;;;4.76;48.58
48527;BME280;34317;51.660;5.824;2023-02-28T07:01:08;103094.94;;;4.76;48.85
48527;BME280;34317;51.660;5.824;2023-02-28T07:03:36;103094.06;;;4.75;48.47
48527;BME280;34317;51.660;5.824;2023-02-28T07:06:05;103094.97;;;4.77;48.43
48527;BME280;34317;51.660;5.824;2023-02-28T07:08:34;103102.88;;;4.80;48.42
48527;BME280;34317;51.660;5.824;2023-02-28T07:11:03;103104.69;;;4.84;48.73
48527;BME280;34317;51.660;5.824;2023-02-28T07:13:30;103099.47;;;4.87;48.53
48527;BME280;34317;51.660;5.824;2023-02-28T07:16:03;103101.31;;;4.92;48.64
48527;BME280;34317;51.660;5.824;2023-02-28T07:18:31;103098.72;;;4.95;49.00
48527;BME280;34317;51.660;5.824;2023-02-28T07:21:01;103099.63;;;4.97;48.71
48527;BME280;34317;51.660;5.824;2023-02-28T07:23:29;103101.41;;;5.01;48.72
48527;BME280;34317;51.660;5.824;2023-02-28T07:25:56;103103.19;;;5.02;48.59
48527;BME280;34317;51.660;5.824;2023-02-28T07:28:24;103106.72;;;5.04;48.67
48527;BME280;34317;51.660;5.824;2023-02-28T07:30:51;103106.72;;;5.04;48.62
48527;BME280;34317;51.660;5.824;2023-02-28T07:33:18;103116.38;;;5.06;48.41
48527;BME280;34317;51.660;5.824;2023-02-28T07:35:46;103113.78;;;5.08;48.59
48527;BME280;34317;51.660;5.824;2023-02-28T07:38:13;103119.91;;;5.07;48.24
48527;BME280;34317;51.660;5.824;2023-02-28T07:40:40;103124.28;;;5.08;48.15
48527;BME280;34317;51.660;5.824;2023-02-28T07:43:08;103127.78;;;5.07;48.29
48527;BME280;34317;51.660;5.824;2023-02-28T07:45:35;103129.53;;;5.05;48.38
48527;BME280;34317;51.660;5.824;2023-02-28T07:48:02;103131.25;;;5.03;48.30
48527;BME280;34317;51.660;5.824;2023-02-28T07:50:30;103132.94;;;5.01;48.04
48527;BME280;34317;51.660;5.824;2023-02-28T07:52:58;103134.66;;;4.99;47.82
48527;BME280;34317;51.660;5.824;2023-02-28T07:55:26;103125.88;;;4.97;48.00
48527;BME280;34317;51.660;5.824;2023-02-28T07:57:53;103129.38;;;4.96;48.32
48527;BME280;34317;51.660;5.824;2023-02-28T08:00:21;103126.78;;;4.99;48.12
48527;BME280;34317;51.660;5.824;2023-02-28T08:02:49;103138.19;;;5.01;47.73
48527;BME280;34317;51.660;5.824;2023-02-28T08:05:16;103136.50;;;5.03;47.81
48527;BME280;34317;51.660;5.824;2023-02-28T08:07:49;103128.59;;;5.04;47.59
48527;BME280;34317;51.660;5.824;2023-02-28T08:10:16;103131.28;;;5.07;47.57
48527;BME280;34317;51.660;5.824;2023-02-28T08:12:43;103134.84;;;5.11;47.54
48527;BME280;34317;51.660;5.824;2023-02-28T08:15:11;103135.81;;;5.16;47.13
48527;BME280;34317;51.660;5.824;2023-02-28T08:17:38;103133.22;;;5.19;47.18
48527;BME280;34317;51.660;5.824;2023-02-28T08:20:06;103140.25;;;5.23;47.31
48527;BME280;34317;51.660;5.824;2023-02-28T08:22:34;103132.44;;;5.26;47.19
48527;BME280;34317;51.660;5.824;2023-02-28T08:25:01;103130.75;;;5.30;46.84
48527;BME280;34317;51.660;5.824;2023-02-28T08:27:28;103135.13;;;5.33;46.93
48527;BME280;34317;51.660;5.824;2023-02-28T08:29:55;103136.94;;;5.37;46.59
48527;BME280;34317;51.660;5.824;2023-02-28T08:32:23;103131.75;;;5.40;46.96
48527;BME280;34317;51.660;5.824;2023-02-28T08:34:56;103126.53;;;5.43;46.56
48527;BME280;34317;51.660;5.824;2023-02-28T08:37:24;103121.31;;;5.46;46.28
48527;BME280;34317;51.660;5.824;2023-02-28T08:39:51;103118.75;;;5.51;46.19
48527;BME280;34317;51.660;5.824;2023-02-28T08:42:23;103124.94;;;5.54;46.29
48527;BME280;34317;51.660;5.824;2023-02-28T08:44:50;103124.13;;;5.60;46.00
48527;BME280;34317;51.660;5.824;2023-02-28T08:47:18;103127.66;;;5.65;46.35
48527;BME280;34317;51.660;5.824;2023-02-28T08:49:45;103127.75;;;5.70;45.99
48527;BME280;34317;51.660;5.824;2023-02-28T08:52:13;103130.44;;;5.76;45.98
48527;BME280;34317;51.660;5.824;2023-02-28T08:54:40;103133.16;;;5.80;45.77
48527;BME280;34317;51.660;5.824;2023-02-28T08:57:07;103132.34;;;5.86;45.33
48527;BME280;34317;51.660;5.824;2023-02-28T08:59:35;103133.25;;;5.91;45.53
48527;BME280;34317;51.660;5.824;2023-02-28T09:02:02;103134.25;;;5.99;45.91
48527;BME280;34317;51.660;5.824;2023-02-28T09:04:30;103125.59;;;6.07;45.58
48527;BME280;34317;51.660;5.824;2023-02-28T09:06:59;103122.13;;;6.14;45.22
48527;BME280;34317;51.660;5.824;2023-02-28T09:09:27;103125.69;;;6.19;44.95
48527;BME280;34317;51.660;5.824;2023-02-28T09:11:56;103129.28;;;6.26;45.17
48527;BME280;34317;51.660;5.824;2023-02-28T09:14:23;103129.34;;;6.33;45.07
48527;BME280;34317;51.660;5.824;2023-02-28T09:16:50;103122.34;;;6.38;44.75
48527;BME280;34317;51.660;5.824;2023-02-28T09:19:18;103127.69;;;6.45;44.51
48527;BME280;34317;51.660;5.824;2023-02-28T09:21:45;103117.22;;;6.51;44.64
48527;BME280;34317;51.660;5.824;2023-02-28T09:24:13;103120.78;;;6.56;44.36
48527;BME280;34317;51.660;5.824;2023-02-28T09:26:42;103120.81;;;6.60;44.18
48527;BME280;34317;51.660;5.824;2023-02-28T09:29:30;103122.63;;;6.69;44.57
48527;BME280;34317;51.660;5.824;2023-02-28T09:31:58;103120.06;;;6.77;44.17
48527;BME280;34317;51.660;5.824;2023-02-28T09:34:28;103120.97;;;6.83;43.43
48527;BME280;34317;51.660;5.824;2023-02-28T09:36:58;103121.91;;;6.89;43.39
48527;BME280;34317;51.660;5.824;2023-02-28T09:39:25;103121.94;;;6.93;43.42
48527;BME280;34317;51.660;5.824;2023-02-28T09:41:55;103109.66;;;6.98;43.29
48527;BME280;34317;51.660;5.824;2023-02-28T09:44:41;103109.72;;;7.05;43.16
48527;BME280;34317;51.660;5.824;2023-02-28T09:47:17;103114.16;;;7.13;43.18
48527;BME280;34317;51.660;5.824;2023-02-28T09:49:46;103110.69;;;7.20;42.83
48527;BME280;34317;51.660;5.824;2023-02-28T09:52:25;103112.47;;;7.25;42.35
48527;BME280;34317;51.660;5.824;2023-02-28T09:54:55;103112.47;;;7.31;42.42
48527;BME280;34317;51.660;5.824;2023-02-28T09:57:33;103114.28;;;7.38;42.22
48527;BME280;34317;51.660;5.824;2023-02-28T10:00:24;103114.31;;;7.47;41.91
48527;BME280;34317;51.660;5.824;2023-02-28T10:03:20;103112.59;;;7.52;41.33
48527;BME280;34317;51.660;5.824;2023-02-28T10:05:59;103110.84;;;7.54;40.95
48527;BME280;34317;51.660;5.824;2023-02-28T10:08:37;103112.63;;;7.58;41.41
48527;BME280;34317;51.660;5.824;2023-02-28T10:11:12;103103.88;;;7.66;41.01
48527;BME280;34317;51.660;5.824;2023-02-28T10:16:34;103093.38;;;7.78;41.26
48527;BME280;34317;51.660;5.824;2023-02-28T10:24:51;103105.72;;;7.91;41.14
48527;BME280;34317;51.660;5.824;2023-02-28T10:27:21;103104.84;;;7.97;41.00
48527;BME280;34317;51.660;5.824;2023-02-28T10:29:54;103102.19;;;8.02;40.76
48527;BME280;34317;51.660;5.824;2023-02-28T10:32:27;103105.75;;;8.07;40.83
48527;BME280;34317;51.660;5.824;2023-02-28T10:35:00;103098.72;;;8.15;40.58
48527;BME280;34317;51.660;5.824;2023-02-28T10:37:28;103102.25;;;8.20;40.46
48527;BME280;34317;51.660;5.824;2023-02-28T10:39:55;103104.88;;;8.25;40.10
48527;BME280;34317;51.660;5.824;2023-02-28T10:42:25;103096.97;;;8.26;39.78
48527;BME280;34317;51.660;5.824;2023-02-28T10:45:15;103101.38;;;8.27;40.05
48527;BME280;34317;51.660;5.824;2023-02-28T10:50:43;103081.13;;;8.38;39.86
48527;BME280;34317;51.660;5.824;2023-02-28T11:03:57;103081.19;;;8.48;39.12
48527;BME280;34317;51.660;5.824;2023-02-28T11:06:32;103081.16;;;8.51;39.29
48527;BME280;34317;51.660;5.824;2023-02-28T11:09:06;103077.63;;;8.55;39.20
48527;BME280;34317;51.660;5.824;2023-02-28T11:11:44;103075.88;;;8.63;39.37
48527;BME280;34317;51.660;5.824;2023-02-28T11:14:20;103068.81;;;8.71;39.52
48527;BME280;34317;51.660;5.824;2023-02-28T11:16:49;103074.09;;;8.84;39.66
48527;BME280;34317;51.660;5.824;2023-02-28T11:19:39;103062.59;;;8.92;38.54
48527;BME280;34317;51.660;5.824;2023-02-28T11:22:07;103068.78;;;8.93;37.37
48527;BME280;34317;51.660;5.824;2023-02-28T11:24:37;103068.78;;;8.90;37.30
48527;BME280;34317;51.660;5.824;2023-02-28T11:27:26;103072.31;;;8.92;37.98
48527;BME280;34317;51.660;5.824;2023-02-28T11:29:54;103063.47;;;8.96;38.08
48527;BME280;34317;51.660;5.824;2023-02-28T11:32:23;103056.44;;;9.01;37.95
48527;BME280;34317;51.660;5.824;2023-02-28T11:35:10;103051.16;;;9.04;37.58
48527;BME280;34317;51.660;5.824;2023-02-28T11:37:41;103047.59;;;9.08;37.69
48527;BME280;34317;51.660;5.824;2023-02-28T11:40:14;103058.13;;;9.11;37.37
48527;BME280;34317;51.660;5.824;2023-02-28T11:46:11;103046.69;;;9.15;37.22
48527;BME280;34317;51.660;5.824;2023-02-28T11:51:52;103054.63;;;9.12;36.65
48527;BME280;34317;51.660;5.824;2023-02-28T11:57:24;103052.81;;;9.24;37.38
48527;BME280;34317;51.660;5.824;2023-02-28T12:00:25;103052.81;;;9.27;37.00
48527;BME280;34317;51.660;5.824;2023-02-28T12:05:45;103036.88;;;9.42;37.60
48527;BME280;34317;51.660;5.824;2023-02-28T12:19:48;103017.38;;;9.65;36.76
48527;BME280;34317;51.660;5.824;2023-02-28T12:22:28;103013.81;;;9.66;36.73
48527;BME280;34317;51.660;5.824;2023-02-28T12:25:21;103022.63;;;9.68;36.37
48527;BME280;34317;51.660;5.824;2023-02-28T12:27:51;103018.22;;;9.65;36.51
48527;BME280;34317;51.660;5.824;2023-02-28T12:30:26;103013.81;;;9.66;36.44
48527;BME280;34317;51.660;5.824;2023-02-28T12:33:21;102999.72;;;9.64;36.37
48527;BME280;34317;51.660;5.824;2023-02-28T12:35:53;103008.56;;;9.63;35.15
48527;BME280;34317;51.660;5.824;2023-02-28T12:38:26;103004.19;;;9.57;35.08
48527;BME280;34317;51.660;5.824;2023-02-28T12:41:03;103002.44;;;9.51;35.28
48527;BME280;34317;51.660;5.824;2023-02-28T12:43:38;102998.03;;;9.50;35.72
48527;BME280;34317;51.660;5.824;2023-02-28T12:46:11;102989.19;;;9.54;35.92
48527;BME280;34317;51.660;5.824;2023-02-28T12:48:46;102989.19;;;9.61;36.03
48527;BME280;34317;51.660;5.824;2023-02-28T12:51:15;102989.13;;;9.67;35.76
48527;BME280;34317;51.660;5.824;2023-02-28T12:53:55;102984.69;;;9.70;35.48
48527;BME280;34317;51.660;5.824;2023-02-28T12:59:10;102976.75;;;9.72;35.00
48527;BME280;34317;51.660;5.824;2023-02-28T13:11:04;102948.41;;;9.86;35.16
48527;BME280;34317;51.660;5.824;2023-02-28T13:13:45;102967.81;;;9.85;34.68
48527;BME280;34317;51.660;5.824;2023-02-28T13:16:12;102970.47;;;9.84;34.88
48527;BME280;34317;51.660;5.824;2023-02-28T13:18:43;102957.25;;;9.82;34.47
48527;BME280;34317;51.660;5.824;2023-02-28T13:21:28;102958.13;;;9.83;34.77
48527;BME280;34317;51.660;5.824;2023-02-28T13:24:01;102953.69;;;9.86;35.38
48527;BME280;34317;51.660;5.824;2023-02-28T13:29:27;102951.88;;;9.91;34.91
48527;BME280;34317;51.660;5.824;2023-02-28T13:42:50;102946.59;;;9.94;34.62
48527;BME280;34317;51.660;5.824;2023-02-28T13:45:26;102945.69;;;9.94;34.48
48527;BME280;34317;51.660;5.824;2023-02-28T13:48:02;102941.25;;;9.98;34.36
48527;BME280;34317;51.660;5.824;2023-02-28T13:50:38;102942.97;;;10.02;34.81
48527;BME280;34317;51.660;5.824;2023-02-28T13:56:03;102942.88;;;10.12;34.90
48527;BME280;34317;51.660;5.824;2023-02-28T13:58:53;102939.28;;;10.18;34.46
48527;BME280;34317;51.660;5.824;2023-02-28T14:01:31;102941.06;;;10.19;33.97
48527;BME280;34317;51.660;5.824;2023-02-28T14:04:22;102945.50;;;10.17;34.07
48527;BME280;34317;51.660;5.824;2023-02-28T14:07:00;102941.06;;;10.16;34.22
48527;BME280;34317;51.660;5.824;2023-02-28T14:09:33;102941.06;;;10.16;33.91
48527;BME280;34317;51.660;5.824;2023-02-28T14:12:51;102947.25;;;10.17;33.48
48527;BME280;34317;51.660;5.824;2023-02-28T14:15:28;102944.59;;;10.15;33.69
48527;BME280;34317;51.660;5.824;2023-02-28T14:17:59;102940.19;;;10.17;34.05
48527;BME280;34317;51.660;5.824;2023-02-28T14:20:32;102928.69;;;10.20;33.53
48527;BME280;34317;51.660;5.824;2023-02-28T14:23:11;102936.66;;;10.17;33.25
48527;BME280;34317;51.660;5.824;2023-02-28T14:31:44;102926.97;;;10.17;33.80
48527;BME280;34317;51.660;5.824;2023-02-28T14:36:46;102919.78;;;10.28;34.16
48527;BME280;34317;51.660;5.824;2023-02-28T14:39:21;102923.25;;;10.37;33.91
48527;BME280;34317;51.660;5.824;2023-02-28T14:41:49;102928.53;;;10.40;33.78
48527;BME280;34317;51.660;5.824;2023-02-28T14:44:24;102924.13;;;10.37;33.47
48527;BME280;34317;51.660;5.824;2023-02-28T14:46:55;102932.06;;;10.36;33.82
48527;BME280;34317;51.660;5.824;2023-02-28T14:49:29;102930.28;;;10.41;34.11
48527;BME280;34317;51.660;5.824;2023-02-28T14:54:41;102921.28;;;10.54;34.10
48527;BME280;34317;51.660;5.824;2023-02-28T14:57:27;102917.75;;;10.55;34.08
48527;BME280;34317;51.660;5.824;2023-02-28T15:00:15;102916.84;;;10.56;34.06
48527;BME280;34317;51.660;5.824;2023-02-28T15:02:43;102915.97;;;10.57;34.16
48527;BME280;34317;51.660;5.824;2023-02-28T15:07:46;102911.47;;;10.62;33.94
48527;BME280;34317;51.660;5.824;2023-02-28T15:10:23;102918.53;;;10.65;34.21
48527;BME280;34317;51.660;5.824;2023-02-28T15:13:00;102912.28;;;10.67;34.30
48527;BME280;34317;51.660;5.824;2023-02-28T15:18:33;102924.72;;;10.62;33.67
48527;BME280;34317;51.660;5.824;2023-02-28T15:21:11;102923.06;;;10.55;33.18